Nisshunmaru — JD2245 — position and weather

sailwx.info

Track history (hours):
 
Tides and Currents Weather Stations Pressure Air Temp Water Temp Dewpoint Dewpoint Depression Visibility Wind Speed Wind Dir Waves Ship Positions

Nisshunmaru

Last reported at 2018-Jul-17 08:06 UTC. Time now 2018-Jul-22 16:43 UTC.
Position N 34°24' E 134°13'.

Length 105 m; draft 5.6 m.

Type: Ship (hazmat cat B). MMSI: 431501863.

Date/timePositionNaut miles runAvg speedWind from/ knotsBaromVisibWave heightAir tempDewpointWater temp
2018-Jul-17 08:06N 34°24' E 134°13'113.1
2018-Jul-17 08:00N 34°24' E 134°14'714.0
2018-Jul-17 07:30N 34°25' E 134°23'714.8
2018-Jul-17 07:00N 34°28' E 134°31'714.7
2018-Jul-17 06:30N 34°31' E 134°39'714.7
2018-Jul-17 06:00N 34°34' E 134°47'814.5
2018-Jul-17 05:27N 34°37' E 134°57'512.0
2018-Jul-17 05:00N 34°37' E 135°03'4 8.2
2018-Jul-17 04:30N 34°38' E 135°08'1 0.3
2018-Jul-17 00:23N 34°39' E 135°08'1 0.7
2018-Jul-16 23:21N 34°38' E 135°08'0 0.0
2018-Jul-16 22:57N 34°38' E 135°08'0 0.1
2018-Jul-16 22:27N 34°38' E 135°08'0 0.0
2018-Jul-16 21:57N 34°38' E 135°08'0 0.0
2018-Jul-16 21:27N 34°38' E 135°08'0 0.1
2018-Jul-16 21:00N 34°38' E 135°08'0 0.1
2018-Jul-16 20:27N 34°38' E 135°08'0 0.1
2018-Jul-16 20:00N 34°38' E 135°08'0 0.0
2018-Jul-16 19:30N 34°38' E 135°08'0 0.0
2018-Jul-16 18:57N 34°38' E 135°08'0 0.1
2018-Jul-16 18:30N 34°38' E 135°08'0 0.1
2018-Jul-16 17:57N 34°38' E 135°08'0 0.1
2018-Jul-16 17:21N 34°38' E 135°08'0 0.0
2018-Jul-16 16:57N 34°38' E 135°08'0 0.0
2018-Jul-16 16:30N 34°38' E 135°08'0 0.0
2018-Jul-16 15:51N 34°38' E 135°08'0 0.0
2018-Jul-16 15:27N 34°38' E 135°08'0 0.0
2018-Jul-16 15:00N 34°38' E 135°08'0 0.0
2018-Jul-16 14:21N 34°38' E 135°08'0 0.0
2018-Jul-16 13:57N 34°38' E 135°08'0 0.0
2018-Jul-16 13:27N 34°38' E 135°08'0 0.1
2018-Jul-16 12:57N 34°38' E 135°08'0 0.0
2018-Jul-16 12:30N 34°38' E 135°08'0 0.0
2018-Jul-16 11:57N 34°38' E 135°08'0 0.0
2018-Jul-16 11:30N 34°38' E 135°08'0 0.0
2018-Jul-16 11:00N 34°38' E 135°08'0 0.2
2018-Jul-16 10:31N 34°38' E 135°08'5 9.5
2018-Jul-16 10:00N 34°33' E 135°06'714.6
2018-Jul-16 09:30N 34°26' E 135°03'714.7
2018-Jul-16 09:00N 34°19' E 135°01'612.3
2018-Jul-16 08:30N 34°13' E 135°02'713.8
2018-Jul-16 08:00N 34°08' E 135°07'1 1.0
2018-Jul-16 07:26N 34°07' E 135°07'0 0.0
2018-Jul-16 05:13N 34°07' E 135°07'0 0.0
2018-Jul-16 04:58N 34°07' E 135°07'0 0.0
2018-Jul-16 03:31N 34°07' E 135°07'0 0.4
2018-Jul-16 03:24N 34°07' E 135°07'1 2.8
2018-Jul-16 03:01N 34°08' E 135°06'0 0.2
2018-Jul-16 02:30N 34°08' E 135°06'0 0.1
2018-Jul-16 02:00N 34°08' E 135°06'0 0.1
2018-Jul-16 01:27N 34°08' E 135°06'0 0.1
2018-Jul-16 01:00N 34°08' E 135°06'0 0.0
2018-Jul-16 00:30N 34°08' E 135°06'0 0.1
2018-Jul-16 00:00N 34°08' E 135°06'0 0.1
2018-Jul-15 23:30N 34°08' E 135°06'0 0.1
2018-Jul-15 23:00N 34°08' E 135°06'0 0.0
2018-Jul-15 22:30N 34°08' E 135°06'1 1.4
2018-Jul-15 22:00N 34°08' E 135°05'612.9
2018-Jul-15 21:31N 34°02' E 135°01'714.8
2018-Jul-15 21:00N 33°56' E 134°57'714.3
2018-Jul-15 20:30N 33°49' E 134°53'814.3
2018-Jul-15 19:58N 33°43' E 134°48'714.6
2018-Jul-15 19:30N 33°38' E 134°42'715.1
2018-Jul-15 19:00N 33°33' E 134°36'  
Track history (hours):
 
Tides and Currents Weather Stations Pressure Air Temp Water Temp Dewpoint Dewpoint Depression Visibility Wind Speed Wind Dir Waves Ship Positions

Nisshunmaru

Last reported at 2018-Jul-17 08:06 UTC. Time now 2018-Jul-22 16:43 UTC.
Position N 34°24' E 134°13'.

Length 105 m; draft 5.6 m.

Type: Ship (hazmat cat B). MMSI: 431501863.

Date/timePositionNaut miles runAvg speedWind from/ knotsBaromVisibWave heightAir tempDewpointWater temp
2018-Jul-17 08:06N 34°24' E 134°13'113.1
2018-Jul-17 08:00N 34°24' E 134°14'714.0
2018-Jul-17 07:30N 34°25' E 134°23'714.8
2018-Jul-17 07:00N 34°28' E 134°31'714.7
2018-Jul-17 06:30N 34°31' E 134°39'714.7
2018-Jul-17 06:00N 34°34' E 134°47'814.5
2018-Jul-17 05:27N 34°37' E 134°57'512.0
2018-Jul-17 05:00N 34°37' E 135°03'4 8.2
2018-Jul-17 04:30N 34°38' E 135°08'1 0.3
2018-Jul-17 00:23N 34°39' E 135°08'1 0.7
2018-Jul-16 23:21N 34°38' E 135°08'0 0.0
2018-Jul-16 22:57N 34°38' E 135°08'0 0.1
2018-Jul-16 22:27N 34°38' E 135°08'0 0.0
2018-Jul-16 21:57N 34°38' E 135°08'0 0.0
2018-Jul-16 21:27N 34°38' E 135°08'0 0.1
2018-Jul-16 21:00N 34°38' E 135°08'0 0.1
2018-Jul-16 20:27N 34°38' E 135°08'0 0.1
2018-Jul-16 20:00N 34°38' E 135°08'0 0.0
2018-Jul-16 19:30N 34°38' E 135°08'0 0.0
2018-Jul-16 18:57N 34°38' E 135°08'0 0.1
2018-Jul-16 18:30N 34°38' E 135°08'0 0.1
2018-Jul-16 17:57N 34°38' E 135°08'0 0.1
2018-Jul-16 17:21N 34°38' E 135°08'0 0.0
2018-Jul-16 16:57N 34°38' E 135°08'0 0.0
2018-Jul-16 16:30N 34°38' E 135°08'0 0.0
2018-Jul-16 15:51N 34°38' E 135°08'0 0.0
2018-Jul-16 15:27N 34°38' E 135°08'0 0.0
2018-Jul-16 15:00N 34°38' E 135°08'0 0.0
2018-Jul-16 14:21N 34°38' E 135°08'0 0.0
2018-Jul-16 13:57N 34°38' E 135°08'0 0.0
2018-Jul-16 13:27N 34°38' E 135°08'0 0.1
2018-Jul-16 12:57N 34°38' E 135°08'0 0.0
2018-Jul-16 12:30N 34°38' E 135°08'0 0.0
2018-Jul-16 11:57N 34°38' E 135°08'0 0.0
2018-Jul-16 11:30N 34°38' E 135°08'0 0.0
2018-Jul-16 11:00N 34°38' E 135°08'0 0.2
2018-Jul-16 10:31N 34°38' E 135°08'5 9.5
2018-Jul-16 10:00N 34°33' E 135°06'714.6
2018-Jul-16 09:30N 34°26' E 135°03'714.7
2018-Jul-16 09:00N 34°19' E 135°01'612.3
2018-Jul-16 08:30N 34°13' E 135°02'713.8
2018-Jul-16 08:00N 34°08' E 135°07'1 1.0
2018-Jul-16 07:26N 34°07' E 135°07'0 0.0
2018-Jul-16 05:13N 34°07' E 135°07'0 0.0
2018-Jul-16 04:58N 34°07' E 135°07'0 0.0
2018-Jul-16 03:31N 34°07' E 135°07'0 0.4
2018-Jul-16 03:24N 34°07' E 135°07'1 2.8
2018-Jul-16 03:01N 34°08' E 135°06'0 0.2
2018-Jul-16 02:30N 34°08' E 135°06'0 0.1
2018-Jul-16 02:00N 34°08' E 135°06'0 0.1
2018-Jul-16 01:27N 34°08' E 135°06'0 0.1
2018-Jul-16 01:00N 34°08' E 135°06'0 0.0
2018-Jul-16 00:30N 34°08' E 135°06'0 0.1
2018-Jul-16 00:00N 34°08' E 135°06'0 0.1
2018-Jul-15 23:30N 34°08' E 135°06'0 0.1
2018-Jul-15 23:00N 34°08' E 135°06'0 0.0
2018-Jul-15 22:30N 34°08' E 135°06'1 1.4
2018-Jul-15 22:00N 34°08' E 135°05'612.9
2018-Jul-15 21:31N 34°02' E 135°01'714.8
2018-Jul-15 21:00N 33°56' E 134°57'714.3
2018-Jul-15 20:30N 33°49' E 134°53'814.3
2018-Jul-15 19:58N 33°43' E 134°48'714.6
2018-Jul-15 19:30N 33°38' E 134°42'715.1
2018-Jul-15 19:00N 33°33' E 134°36'  

Dump ship's entire track history